sensor_id;sensor_type;location;lat;lon;timestamp;P1;durP1;ratioP1;P2;durP2;ratioP2
49217;SDS011;35045;51.194;7.268;2022-12-29T00:01:34;2.67;;;1.23;;
49217;SDS011;35045;51.194;7.268;2022-12-29T00:04:01;4.15;;;1.20;;
49217;SDS011;35045;51.194;7.268;2022-12-29T00:06:30;3.47;;;1.15;;
49217;SDS011;35045;51.194;7.268;2022-12-29T00:08:57;1.98;;;0.95;;
49217;SDS011;35045;51.194;7.268;2022-12-29T00:11:24;3.45;;;1.13;;
49217;SDS011;35045;51.194;7.268;2022-12-29T00:13:53;3.03;;;1.20;;
49217;SDS011;35045;51.194;7.268;2022-12-29T00:16:40;2.35;;;1.00;;
49217;SDS011;35045;51.194;7.268;2022-12-29T00:19:07;2.45;;;1.00;;
49217;SDS011;35045;51.194;7.268;2022-12-29T00:21:53;2.97;;;1.25;;
49217;SDS011;35045;51.194;7.268;2022-12-29T00:24:38;2.97;;;1.10;;
49217;SDS011;35045;51.194;7.268;2022-12-29T00:27:23;2.35;;;1.00;;
49217;SDS011;35045;51.194;7.268;2022-12-29T00:30:09;1.98;;;0.95;;
49217;SDS011;35045;51.194;7.268;2022-12-29T00:32:55;2.33;;;1.00;;
49217;SDS011;35045;51.194;7.268;2022-12-29T00:35:47;3.28;;;1.10;;
49217;SDS011;35045;51.194;7.268;2022-12-29T00:38:19;1.75;;;0.90;;
49217;SDS011;35045;51.194;7.268;2022-12-29T00:41:05;2.10;;;1.00;;
49217;SDS011;35045;51.194;7.268;2022-12-29T00:43:50;2.55;;;1.00;;
49217;SDS011;35045;51.194;7.268;2022-12-29T00:46:34;2.35;;;0.93;;
49217;SDS011;35045;51.194;7.268;2022-12-29T00:49:05;1.77;;;0.80;;
49217;SDS011;35045;51.194;7.268;2022-12-29T00:51:52;1.67;;;0.80;;
49217;SDS011;35045;51.194;7.268;2022-12-29T00:54:19;1.45;;;0.80;;
49217;SDS011;35045;51.194;7.268;2022-12-29T00:56:46;2.22;;;0.90;;
49217;SDS011;35045;51.194;7.268;2022-12-29T00:59:16;2.50;;;0.90;;
49217;SDS011;35045;51.194;7.268;2022-12-29T01:01:44;2.97;;;0.90;;
49217;SDS011;35045;51.194;7.268;2022-12-29T01:04:12;2.20;;;0.88;;
49217;SDS011;35045;51.194;7.268;2022-12-29T01:06:39;1.60;;;0.70;;
49217;SDS011;35045;51.194;7.268;2022-12-29T01:09:06;1.67;;;0.70;;
49217;SDS011;35045;51.194;7.268;2022-12-29T01:11:51;2.25;;;0.77;;
49217;SDS011;35045;51.194;7.268;2022-12-29T01:14:18;1.55;;;0.70;;
49217;SDS011;35045;51.194;7.268;2022-12-29T01:16:45;1.83;;;0.70;;
49217;SDS011;35045;51.194;7.268;2022-12-29T01:19:11;1.80;;;0.75;;
49217;SDS011;35045;51.194;7.268;2022-12-29T01:21:38;1.58;;;0.70;;
49217;SDS011;35045;51.194;7.268;2022-12-29T01:24:04;2.67;;;0.80;;
49217;SDS011;35045;51.194;7.268;2022-12-29T01:26:31;1.35;;;0.65;;
49217;SDS011;35045;51.194;7.268;2022-12-29T01:28:57;1.38;;;0.60;;
49217;SDS011;35045;51.194;7.268;2022-12-29T01:31:23;1.45;;;0.60;;
49217;SDS011;35045;51.194;7.268;2022-12-29T01:33:49;1.58;;;0.63;;
49217;SDS011;35045;51.194;7.268;2022-12-29T01:36:18;1.75;;;0.88;;
49217;SDS011;35045;51.194;7.268;2022-12-29T01:38:44;2.20;;;0.63;;
49217;SDS011;35045;51.194;7.268;2022-12-29T01:41:11;1.27;;;0.60;;
49217;SDS011;35045;51.194;7.268;2022-12-29T01:43:48;1.05;;;0.60;;
49217;SDS011;35045;51.194;7.268;2022-12-29T01:48:47;1.58;;;0.88;;
49217;SDS011;35045;51.194;7.268;2022-12-29T01:51:15;2.22;;;0.70;;
49217;SDS011;35045;51.194;7.268;2022-12-29T01:53:42;1.05;;;0.60;;
49217;SDS011;35045;51.194;7.268;2022-12-29T01:56:10;1.65;;;0.68;;
49217;SDS011;35045;51.194;7.268;2022-12-29T01:58:39;2.05;;;0.70;;
49217;SDS011;35045;51.194;7.268;2022-12-29T02:01:10;1.65;;;0.98;;
49217;SDS011;35045;51.194;7.268;2022-12-29T02:03:37;1.08;;;0.60;;
49217;SDS011;35045;51.194;7.268;2022-12-29T02:06:22;1.42;;;0.70;;
49217;SDS011;35045;51.194;7.268;2022-12-29T02:08:53;1.88;;;0.70;;
49217;SDS011;35045;51.194;7.268;2022-12-29T02:11:22;2.88;;;0.70;;
49217;SDS011;35045;51.194;7.268;2022-12-29T02:13:51;2.80;;;0.65;;
49217;SDS011;35045;51.194;7.268;2022-12-29T02:16:25;1.48;;;0.68;;
49217;SDS011;35045;51.194;7.268;2022-12-29T02:22:02;1.00;;;0.60;;
49217;SDS011;35045;51.194;7.268;2022-12-29T02:24:56;2.80;;;0.80;;
49217;SDS011;35045;51.194;7.268;2022-12-29T02:30:52;2.40;;;0.80;;
49217;SDS011;35045;51.194;7.268;2022-12-29T02:36:30;2.15;;;0.80;;
49217;SDS011;35045;51.194;7.268;2022-12-29T02:39:07;2.92;;;0.60;;
49217;SDS011;35045;51.194;7.268;2022-12-29T02:44:55;0.90;;;0.60;;
49217;SDS011;35045;51.194;7.268;2022-12-29T02:47:47;1.98;;;0.73;;
49217;SDS011;35045;51.194;7.268;2022-12-29T02:50:23;2.78;;;0.85;;
49217;SDS011;35045;51.194;7.268;2022-12-29T02:52:59;1.50;;;0.60;;
49217;SDS011;35045;51.194;7.268;2022-12-29T02:55:28;2.25;;;0.80;;
49217;SDS011;35045;51.194;7.268;2022-12-29T02:58:12;1.48;;;0.70;;
49217;SDS011;35045;51.194;7.268;2022-12-29T03:00:40;1.90;;;0.60;;
49217;SDS011;35045;51.194;7.268;2022-12-29T03:03:41;2.22;;;0.80;;
49217;SDS011;35045;51.194;7.268;2022-12-29T03:06:33;3.55;;;0.85;;
49217;SDS011;35045;51.194;7.268;2022-12-29T03:09:20;1.77;;;0.60;;
49217;SDS011;35045;51.194;7.268;2022-12-29T03:11:58;2.00;;;0.80;;
49217;SDS011;35045;51.194;7.268;2022-12-29T03:14:39;4.20;;;0.90;;
49217;SDS011;35045;51.194;7.268;2022-12-29T03:20:54;3.70;;;1.20;;
49217;SDS011;35045;51.194;7.268;2022-12-29T03:23:25;2.50;;;0.80;;
49217;SDS011;35045;51.194;7.268;2022-12-29T03:25:55;3.20;;;1.05;;
49217;SDS011;35045;51.194;7.268;2022-12-29T03:28:26;1.92;;;0.77;;
49217;SDS011;35045;51.194;7.268;2022-12-29T03:30:57;2.47;;;0.82;;
49217;SDS011;35045;51.194;7.268;2022-12-29T03:33:25;2.45;;;0.70;;
49217;SDS011;35045;51.194;7.268;2022-12-29T03:35:55;2.40;;;0.73;;
49217;SDS011;35045;51.194;7.268;2022-12-29T03:38:30;1.88;;;0.70;;
49217;SDS011;35045;51.194;7.268;2022-12-29T03:41:06;1.40;;;0.63;;
49217;SDS011;35045;51.194;7.268;2022-12-29T03:43:34;1.92;;;0.70;;
49217;SDS011;35045;51.194;7.268;2022-12-29T03:46:01;1.50;;;0.60;;
49217;SDS011;35045;51.194;7.268;2022-12-29T03:48:27;5.07;;;0.90;;
49217;SDS011;35045;51.194;7.268;2022-12-29T03:50:53;2.70;;;0.70;;
49217;SDS011;35045;51.194;7.268;2022-12-29T03:53:19;2.83;;;0.70;;
49217;SDS011;35045;51.194;7.268;2022-12-29T03:55:45;1.52;;;0.70;;
49217;SDS011;35045;51.194;7.268;2022-12-29T03:58:12;3.17;;;0.77;;
49217;SDS011;35045;51.194;7.268;2022-12-29T04:00:38;1.73;;;0.68;;
49217;SDS011;35045;51.194;7.268;2022-12-29T04:03:04;3.25;;;0.85;;
49217;SDS011;35045;51.194;7.268;2022-12-29T04:05:30;1.55;;;0.70;;
49217;SDS011;35045;51.194;7.268;2022-12-29T04:07:56;3.08;;;0.70;;
49217;SDS011;35045;51.194;7.268;2022-12-29T04:10:22;2.42;;;0.80;;
49217;SDS011;35045;51.194;7.268;2022-12-29T04:12:49;3.20;;;0.95;;
49217;SDS011;35045;51.194;7.268;2022-12-29T04:15:15;1.45;;;0.70;;
49217;SDS011;35045;51.194;7.268;2022-12-29T04:17:41;2.00;;;0.80;;
49217;SDS011;35045;51.194;7.268;2022-12-29T04:20:07;1.60;;;0.70;;
49217;SDS011;35045;51.194;7.268;2022-12-29T04:23:02;1.80;;;0.90;;
49217;SDS011;35045;51.194;7.268;2022-12-29T04:25:32;1.08;;;0.70;;
49217;SDS011;35045;51.194;7.268;2022-12-29T04:27:59;1.65;;;0.70;;
49217;SDS011;35045;51.194;7.268;2022-12-29T04:30:25;3.65;;;0.90;;
49217;SDS011;35045;51.194;7.268;2022-12-29T04:32:51;1.67;;;0.88;;
49217;SDS011;35045;51.194;7.268;2022-12-29T04:35:17;1.52;;;0.70;;
49217;SDS011;35045;51.194;7.268;2022-12-29T04:37:43;2.08;;;0.95;;
49217;SDS011;35045;51.194;7.268;2022-12-29T04:40:10;1.45;;;0.77;;
49217;SDS011;35045;51.194;7.268;2022-12-29T04:42:36;2.15;;;0.70;;
49217;SDS011;35045;51.194;7.268;2022-12-29T04:45:02;4.28;;;0.90;;
49217;SDS011;35045;51.194;7.268;2022-12-29T04:47:29;1.52;;;0.70;;
49217;SDS011;35045;51.194;7.268;2022-12-29T04:49:55;1.52;;;0.70;;
49217;SDS011;35045;51.194;7.268;2022-12-29T04:52:21;2.17;;;0.85;;
49217;SDS011;35045;51.194;7.268;2022-12-29T04:54:47;2.30;;;0.80;;
49217;SDS011;35045;51.194;7.268;2022-12-29T04:57:13;1.70;;;0.80;;
49217;SDS011;35045;51.194;7.268;2022-12-29T04:59:39;2.35;;;0.80;;
49217;SDS011;35045;51.194;7.268;2022-12-29T05:02:06;1.77;;;0.68;;
49217;SDS011;35045;51.194;7.268;2022-12-29T05:04:32;2.78;;;1.10;;
49217;SDS011;35045;51.194;7.268;2022-12-29T05:06:58;3.20;;;0.90;;
49217;SDS011;35045;51.194;7.268;2022-12-29T05:09:24;2.03;;;0.85;;
49217;SDS011;35045;51.194;7.268;2022-12-29T05:11:50;2.15;;;0.80;;
49217;SDS011;35045;51.194;7.268;2022-12-29T05:14:16;2.47;;;0.80;;
49217;SDS011;35045;51.194;7.268;2022-12-29T05:16:43;2.70;;;0.85;;
49217;SDS011;35045;51.194;7.268;2022-12-29T05:19:09;1.88;;;0.65;;
49217;SDS011;35045;51.194;7.268;2022-12-29T05:21:35;1.73;;;0.77;;
49217;SDS011;35045;51.194;7.268;2022-12-29T05:24:01;3.55;;;0.82;;
49217;SDS011;35045;51.194;7.268;2022-12-29T05:26:27;2.13;;;0.90;;
49217;SDS011;35045;51.194;7.268;2022-12-29T05:28:54;2.35;;;0.90;;
49217;SDS011;35045;51.194;7.268;2022-12-29T05:31:20;3.25;;;0.85;;
49217;SDS011;35045;51.194;7.268;2022-12-29T05:33:46;2.83;;;1.00;;
49217;SDS011;35045;51.194;7.268;2022-12-29T05:36:12;1.95;;;0.95;;
49217;SDS011;35045;51.194;7.268;2022-12-29T05:38:38;2.28;;;0.80;;
49217;SDS011;35045;51.194;7.268;2022-12-29T05:41:05;2.70;;;0.95;;
49217;SDS011;35045;51.194;7.268;2022-12-29T05:43:31;2.28;;;0.80;;
49217;SDS011;35045;51.194;7.268;2022-12-29T05:45:57;2.17;;;0.80;;
49217;SDS011;35045;51.194;7.268;2022-12-29T05:48:23;1.88;;;0.75;;
49217;SDS011;35045;51.194;7.268;2022-12-29T05:50:50;1.88;;;0.73;;
49217;SDS011;35045;51.194;7.268;2022-12-29T05:53:17;2.30;;;0.75;;
49217;SDS011;35045;51.194;7.268;2022-12-29T05:55:44;3.50;;;0.90;;
49217;SDS011;35045;51.194;7.268;2022-12-29T05:58:14;3.08;;;0.90;;
49217;SDS011;35045;51.194;7.268;2022-12-29T06:00:40;2.03;;;0.60;;
49217;SDS011;35045;51.194;7.268;2022-12-29T06:03:07;3.00;;;1.00;;
49217;SDS011;35045;51.194;7.268;2022-12-29T06:05:33;2.28;;;0.70;;
49217;SDS011;35045;51.194;7.268;2022-12-29T06:07:59;2.40;;;0.70;;
49217;SDS011;35045;51.194;7.268;2022-12-29T06:10:25;1.95;;;0.70;;
49217;SDS011;35045;51.194;7.268;2022-12-29T06:12:51;2.72;;;0.80;;
49217;SDS011;35045;51.194;7.268;2022-12-29T06:15:18;4.05;;;0.90;;
49217;SDS011;35045;51.194;7.268;2022-12-29T06:17:44;2.35;;;0.80;;
49217;SDS011;35045;51.194;7.268;2022-12-29T06:20:10;2.80;;;0.73;;
49217;SDS011;35045;51.194;7.268;2022-12-29T06:22:36;2.22;;;0.88;;
49217;SDS011;35045;51.194;7.268;2022-12-29T06:25:02;1.67;;;0.70;;
49217;SDS011;35045;51.194;7.268;2022-12-29T06:27:31;2.60;;;0.90;;
49217;SDS011;35045;51.194;7.268;2022-12-29T06:29:57;2.95;;;0.85;;
49217;SDS011;35045;51.194;7.268;2022-12-29T06:32:23;2.30;;;0.73;;
49217;SDS011;35045;51.194;7.268;2022-12-29T06:34:49;2.72;;;1.23;;
49217;SDS011;35045;51.194;7.268;2022-12-29T06:37:15;2.78;;;1.17;;
49217;SDS011;35045;51.194;7.268;2022-12-29T06:39:41;3.72;;;0.90;;
49217;SDS011;35045;51.194;7.268;2022-12-29T06:42:09;2.33;;;0.73;;
49217;SDS011;35045;51.194;7.268;2022-12-29T06:44:35;2.10;;;0.88;;
49217;SDS011;35045;51.194;7.268;2022-12-29T06:47:01;2.85;;;0.80;;
49217;SDS011;35045;51.194;7.268;2022-12-29T06:49:28;5.03;;;1.00;;
49217;SDS011;35045;51.194;7.268;2022-12-29T06:51:54;3.35;;;0.90;;
49217;SDS011;35045;51.194;7.268;2022-12-29T06:54:20;4.13;;;1.25;;
49217;SDS011;35045;51.194;7.268;2022-12-29T06:56:46;4.78;;;1.27;;
49217;SDS011;35045;51.194;7.268;2022-12-29T06:59:12;3.88;;;0.90;;
49217;SDS011;35045;51.194;7.268;2022-12-29T07:01:38;3.80;;;0.90;;
49217;SDS011;35045;51.194;7.268;2022-12-29T07:04:05;4.15;;;1.00;;
49217;SDS011;35045;51.194;7.268;2022-12-29T07:06:31;3.75;;;1.00;;
49217;SDS011;35045;51.194;7.268;2022-12-29T07:08:57;3.03;;;0.80;;
49217;SDS011;35045;51.194;7.268;2022-12-29T07:11:23;3.88;;;0.85;;
49217;SDS011;35045;51.194;7.268;2022-12-29T07:13:50;4.60;;;0.90;;
49217;SDS011;35045;51.194;7.268;2022-12-29T07:16:16;4.15;;;0.70;;
49217;SDS011;35045;51.194;7.268;2022-12-29T07:18:43;4.38;;;1.17;;
49217;SDS011;35045;51.194;7.268;2022-12-29T07:21:09;2.25;;;0.73;;
49217;SDS011;35045;51.194;7.268;2022-12-29T07:23:35;1.73;;;0.75;;
49217;SDS011;35045;51.194;7.268;2022-12-29T07:26:02;3.00;;;0.80;;
49217;SDS011;35045;51.194;7.268;2022-12-29T07:28:30;1.52;;;0.73;;
49217;SDS011;35045;51.194;7.268;2022-12-29T07:30:58;3.35;;;0.73;;
49217;SDS011;35045;51.194;7.268;2022-12-29T07:33:24;2.80;;;0.80;;
49217;SDS011;35045;51.194;7.268;2022-12-29T07:35:51;2.55;;;0.85;;
49217;SDS011;35045;51.194;7.268;2022-12-29T07:38:17;1.55;;;0.75;;
49217;SDS011;35045;51.194;7.268;2022-12-29T07:40:43;2.13;;;0.68;;
49217;SDS011;35045;51.194;7.268;2022-12-29T07:43:09;3.80;;;0.90;;
49217;SDS011;35045;51.194;7.268;2022-12-29T07:45:36;3.05;;;0.90;;
49217;SDS011;35045;51.194;7.268;2022-12-29T07:48:02;2.15;;;0.80;;
49217;SDS011;35045;51.194;7.268;2022-12-29T07:50:29;3.85;;;0.90;;
49217;SDS011;35045;51.194;7.268;2022-12-29T07:52:55;3.95;;;0.95;;
49217;SDS011;35045;51.194;7.268;2022-12-29T07:55:21;4.30;;;0.88;;
49217;SDS011;35045;51.194;7.268;2022-12-29T07:57:48;6.88;;;1.10;;
49217;SDS011;35045;51.194;7.268;2022-12-29T08:00:14;3.85;;;0.90;;
49217;SDS011;35045;51.194;7.268;2022-12-29T08:02:40;3.17;;;0.88;;
49217;SDS011;35045;51.194;7.268;2022-12-29T08:05:06;6.05;;;1.10;;
49217;SDS011;35045;51.194;7.268;2022-12-29T08:07:33;4.70;;;0.80;;
49217;SDS011;35045;51.194;7.268;2022-12-29T08:09:59;3.13;;;1.02;;
49217;SDS011;35045;51.194;7.268;2022-12-29T08:12:25;2.42;;;0.70;;
49217;SDS011;35045;51.194;7.268;2022-12-29T08:14:51;3.58;;;0.98;;
49217;SDS011;35045;51.194;7.268;2022-12-29T08:17:17;4.55;;;1.08;;
49217;SDS011;35045;51.194;7.268;2022-12-29T08:19:43;5.45;;;1.30;;
49217;SDS011;35045;51.194;7.268;2022-12-29T08:22:10;6.72;;;0.95;;
49217;SDS011;35045;51.194;7.268;2022-12-29T08:24:36;4.72;;;1.10;;
49217;SDS011;35045;51.194;7.268;2022-12-29T08:27:02;4.13;;;0.85;;
49217;SDS011;35045;51.194;7.268;2022-12-29T08:29:33;3.03;;;0.85;;
49217;SDS011;35045;51.194;7.268;2022-12-29T08:32:00;4.35;;;1.10;;
49217;SDS011;35045;51.194;7.268;2022-12-29T08:34:26;3.88;;;1.20;;
49217;SDS011;35045;51.194;7.268;2022-12-29T08:36:52;9.07;;;2.15;;
49217;SDS011;35045;51.194;7.268;2022-12-29T08:39:18;4.22;;;1.10;;
49217;SDS011;35045;51.194;7.268;2022-12-29T08:41:44;5.47;;;1.20;;
49217;SDS011;35045;51.194;7.268;2022-12-29T08:44:10;3.90;;;0.90;;
49217;SDS011;35045;51.194;7.268;2022-12-29T08:46:37;3.75;;;1.10;;
49217;SDS011;35045;51.194;7.268;2022-12-29T08:49:03;4.60;;;1.00;;
49217;SDS011;35045;51.194;7.268;2022-12-29T08:51:29;5.60;;;1.20;;
49217;SDS011;35045;51.194;7.268;2022-12-29T08:53:55;5.55;;;1.48;;
49217;SDS011;35045;51.194;7.268;2022-12-29T08:56:21;4.45;;;1.52;;
49217;SDS011;35045;51.194;7.268;2022-12-29T08:58:52;4.15;;;1.33;;
49217;SDS011;35045;51.194;7.268;2022-12-29T09:01:18;7.68;;;1.38;;
49217;SDS011;35045;51.194;7.268;2022-12-29T09:03:45;6.63;;;1.17;;
49217;SDS011;35045;51.194;7.268;2022-12-29T09:09:01;5.05;;;1.30;;
49217;SDS011;35045;51.194;7.268;2022-12-29T09:11:27;5.35;;;1.20;;
49217;SDS011;35045;51.194;7.268;2022-12-29T09:13:53;6.35;;;1.23;;
49217;SDS011;35045;51.194;7.268;2022-12-29T09:16:21;7.53;;;1.33;;
49217;SDS011;35045;51.194;7.268;2022-12-29T09:18:48;3.70;;;1.02;;
49217;SDS011;35045;51.194;7.268;2022-12-29T09:21:14;4.85;;;1.38;;
49217;SDS011;35045;51.194;7.268;2022-12-29T09:23:40;5.88;;;1.20;;
49217;SDS011;35045;51.194;7.268;2022-12-29T09:26:07;5.80;;;1.25;;
49217;SDS011;35045;51.194;7.268;2022-12-29T09:28:34;7.65;;;1.75;;
49217;SDS011;35045;51.194;7.268;2022-12-29T09:31:00;6.03;;;1.50;;
49217;SDS011;35045;51.194;7.268;2022-12-29T09:33:27;6.45;;;1.30;;
49217;SDS011;35045;51.194;7.268;2022-12-29T09:35:55;3.67;;;1.05;;
49217;SDS011;35045;51.194;7.268;2022-12-29T09:38:23;7.57;;;1.40;;
49217;SDS011;35045;51.194;7.268;2022-12-29T09:40:51;3.65;;;0.90;;
49217;SDS011;35045;51.194;7.268;2022-12-29T09:43:27;4.90;;;1.20;;
49217;SDS011;35045;51.194;7.268;2022-12-29T09:46:24;5.63;;;1.30;;
49217;SDS011;35045;51.194;7.268;2022-12-29T09:49:54;6.68;;;1.48;;
49217;SDS011;35045;51.194;7.268;2022-12-29T09:52:02;7.65;;;1.45;;
49217;SDS011;35045;51.194;7.268;2022-12-29T09:54:34;4.68;;;1.17;;
49217;SDS011;35045;51.194;7.268;2022-12-29T09:57:25;4.32;;;1.23;;
49217;SDS011;35045;51.194;7.268;2022-12-29T09:59:55;8.05;;;1.52;;
49217;SDS011;35045;51.194;7.268;2022-12-29T10:02:36;6.78;;;1.35;;
49217;SDS011;35045;51.194;7.268;2022-12-29T10:10:50;7.97;;;1.92;;
49217;SDS011;35045;51.194;7.268;2022-12-29T10:13:33;4.60;;;1.45;;
49217;SDS011;35045;51.194;7.268;2022-12-29T10:16:26;7.82;;;1.60;;
49217;SDS011;35045;51.194;7.268;2022-12-29T10:21:59;6.28;;;1.40;;
49217;SDS011;35045;51.194;7.268;2022-12-29T10:24:39;7.20;;;1.60;;
49217;SDS011;35045;51.194;7.268;2022-12-29T10:27:07;7.15;;;1.30;;
49217;SDS011;35045;51.194;7.268;2022-12-29T10:29:38;5.75;;;1.65;;
49217;SDS011;35045;51.194;7.268;2022-12-29T10:34:58;10.20;;;1.80;;
49217;SDS011;35045;51.194;7.268;2022-12-29T10:38:11;6.60;;;1.77;;
49217;SDS011;35045;51.194;7.268;2022-12-29T10:40:42;7.15;;;1.40;;
49217;SDS011;35045;51.194;7.268;2022-12-29T10:45:54;8.43;;;1.73;;
49217;SDS011;35045;51.194;7.268;2022-12-29T10:48:28;9.07;;;2.28;;
49217;SDS011;35045;51.194;7.268;2022-12-29T10:50:58;5.65;;;1.60;;
49217;SDS011;35045;51.194;7.268;2022-12-29T10:53:30;10.18;;;1.77;;
49217;SDS011;35045;51.194;7.268;2022-12-29T10:56:09;6.40;;;1.45;;
49217;SDS011;35045;51.194;7.268;2022-12-29T10:58:44;6.32;;;1.50;;
49217;SDS011;35045;51.194;7.268;2022-12-29T11:01:14;5.80;;;1.40;;
49217;SDS011;35045;51.194;7.268;2022-12-29T11:03:50;9.15;;;1.90;;
49217;SDS011;35045;51.194;7.268;2022-12-29T11:06:49;6.00;;;1.40;;
49217;SDS011;35045;51.194;7.268;2022-12-29T11:09:19;7.30;;;1.52;;
49217;SDS011;35045;51.194;7.268;2022-12-29T11:14:45;7.22;;;1.63;;
49217;SDS011;35045;51.194;7.268;2022-12-29T11:17:15;6.25;;;1.27;;
49217;SDS011;35045;51.194;7.268;2022-12-29T11:19:43;8.10;;;1.77;;
49217;SDS011;35045;51.194;7.268;2022-12-29T11:24:53;8.85;;;1.42;;
49217;SDS011;35045;51.194;7.268;2022-12-29T11:27:24;7.55;;;1.73;;
49217;SDS011;35045;51.194;7.268;2022-12-29T11:29:52;9.13;;;1.83;;
49217;SDS011;35045;51.194;7.268;2022-12-29T11:32:20;7.82;;;1.40;;
49217;SDS011;35045;51.194;7.268;2022-12-29T11:34:50;8.05;;;1.45;;
49217;SDS011;35045;51.194;7.268;2022-12-29T11:39:56;7.00;;;1.45;;
49217;SDS011;35045;51.194;7.268;2022-12-29T11:42:39;8.25;;;1.40;;
49217;SDS011;35045;51.194;7.268;2022-12-29T11:47:45;8.18;;;2.08;;
49217;SDS011;35045;51.194;7.268;2022-12-29T11:50:18;6.22;;;1.80;;
49217;SDS011;35045;51.194;7.268;2022-12-29T11:52:57;8.45;;;1.90;;
49217;SDS011;35045;51.194;7.268;2022-12-29T11:55:26;7.97;;;1.90;;
49217;SDS011;35045;51.194;7.268;2022-12-29T11:57:54;5.85;;;1.33;;
49217;SDS011;35045;51.194;7.268;2022-12-29T12:00:23;6.38;;;1.58;;
49217;SDS011;35045;51.194;7.268;2022-12-29T12:03:03;9.80;;;1.90;;
49217;SDS011;35045;51.194;7.268;2022-12-29T12:05:48;7.07;;;1.90;;
49217;SDS011;35045;51.194;7.268;2022-12-29T12:14:04;7.93;;;1.52;;
49217;SDS011;35045;51.194;7.268;2022-12-29T12:22:04;7.13;;;1.65;;
49217;SDS011;35045;51.194;7.268;2022-12-29T12:24:46;6.80;;;1.75;;
49217;SDS011;35045;51.194;7.268;2022-12-29T12:27:31;7.43;;;1.65;;
49217;SDS011;35045;51.194;7.268;2022-12-29T12:30:20;9.38;;;1.75;;
49217;SDS011;35045;51.194;7.268;2022-12-29T12:37:56;6.30;;;1.42;;
49217;SDS011;35045;51.194;7.268;2022-12-29T12:40:49;9.80;;;1.95;;
49217;SDS011;35045;51.194;7.268;2022-12-29T12:51:35;8.38;;;1.67;;
49217;SDS011;35045;51.194;7.268;2022-12-29T13:00:33;7.65;;;1.73;;
49217;SDS011;35045;51.194;7.268;2022-12-29T13:09:29;7.93;;;1.50;;
49217;SDS011;35045;51.194;7.268;2022-12-29T13:14:52;9.02;;;2.10;;
49217;SDS011;35045;51.194;7.268;2022-12-29T13:19:58;5.53;;;1.10;;
49217;SDS011;35045;51.194;7.268;2022-12-29T13:22:46;8.77;;;1.83;;
49217;SDS011;35045;51.194;7.268;2022-12-29T13:25:29;8.88;;;1.95;;
49217;SDS011;35045;51.194;7.268;2022-12-29T13:28:13;6.65;;;1.75;;
49217;SDS011;35045;51.194;7.268;2022-12-29T13:30:44;6.35;;;1.85;;
49217;SDS011;35045;51.194;7.268;2022-12-29T13:36:26;7.88;;;1.45;;
49217;SDS011;35045;51.194;7.268;2022-12-29T13:39:05;7.32;;;1.52;;
49217;SDS011;35045;51.194;7.268;2022-12-29T13:41:48;6.63;;;1.33;;
49217;SDS011;35045;51.194;7.268;2022-12-29T13:44:22;8.48;;;1.80;;
49217;SDS011;35045;51.194;7.268;2022-12-29T13:46:55;6.28;;;1.20;;
49217;SDS011;35045;51.194;7.268;2022-12-29T13:49:25;5.88;;;1.33;;
49217;SDS011;35045;51.194;7.268;2022-12-29T13:51:53;7.13;;;1.40;;
49217;SDS011;35045;51.194;7.268;2022-12-29T13:56:55;7.53;;;1.50;;
49217;SDS011;35045;51.194;7.268;2022-12-29T13:59:36;6.88;;;1.30;;
49217;SDS011;35045;51.194;7.268;2022-12-29T14:02:11;6.85;;;1.50;;
49217;SDS011;35045;51.194;7.268;2022-12-29T14:05:26;5.38;;;1.15;;
49217;SDS011;35045;51.194;7.268;2022-12-29T14:08:00;8.18;;;1.80;;
49217;SDS011;35045;51.194;7.268;2022-12-29T14:10:32;6.70;;;1.10;;
49217;SDS011;35045;51.194;7.268;2022-12-29T14:13:13;6.65;;;1.10;;
49217;SDS011;35045;51.194;7.268;2022-12-29T14:15:45;6.05;;;1.80;;
49217;SDS011;35045;51.194;7.268;2022-12-29T14:18:24;6.68;;;1.42;;
49217;SDS011;35045;51.194;7.268;2022-12-29T14:20:56;9.38;;;1.60;;
49217;SDS011;35045;51.194;7.268;2022-12-29T14:28:32;5.15;;;1.60;;
49217;SDS011;35045;51.194;7.268;2022-12-29T14:36:38;7.15;;;1.50;;
49217;SDS011;35045;51.194;7.268;2022-12-29T14:41:59;7.00;;;1.50;;
49217;SDS011;35045;51.194;7.268;2022-12-29T14:44:46;4.55;;;1.30;;
49217;SDS011;35045;51.194;7.268;2022-12-29T14:47:22;7.03;;;1.42;;
49217;SDS011;35045;51.194;7.268;2022-12-29T14:50:06;7.18;;;1.20;;
49217;SDS011;35045;51.194;7.268;2022-12-29T14:52:46;6.22;;;1.42;;
49217;SDS011;35045;51.194;7.268;2022-12-29T14:57:48;6.45;;;1.08;;
49217;SDS011;35045;51.194;7.268;2022-12-29T15:00:18;6.03;;;1.17;;
49217;SDS011;35045;51.194;7.268;2022-12-29T15:02:59;8.15;;;1.40;;
49217;SDS011;35045;51.194;7.268;2022-12-29T15:08:10;6.38;;;1.42;;
49217;SDS011;35045;51.194;7.268;2022-12-29T15:10:42;8.07;;;1.52;;
49217;SDS011;35045;51.194;7.268;2022-12-29T15:13:20;8.60;;;1.35;;
49217;SDS011;35045;51.194;7.268;2022-12-29T15:15:49;5.55;;;1.45;;
49217;SDS011;35045;51.194;7.268;2022-12-29T15:18:22;7.35;;;2.30;;
49217;SDS011;35045;51.194;7.268;2022-12-29T15:20:50;4.97;;;1.50;;
49217;SDS011;35045;51.194;7.268;2022-12-29T15:23:20;6.38;;;1.50;;
49217;SDS011;35045;51.194;7.268;2022-12-29T15:25:51;6.05;;;1.55;;
49217;SDS011;35045;51.194;7.268;2022-12-29T15:28:24;6.20;;;1.60;;
49217;SDS011;35045;51.194;7.268;2022-12-29T15:33:20;7.47;;;1.35;;
49217;SDS011;35045;51.194;7.268;2022-12-29T15:35:51;3.75;;;1.38;;
49217;SDS011;35045;51.194;7.268;2022-12-29T15:38:23;5.53;;;1.25;;
49217;SDS011;35045;51.194;7.268;2022-12-29T15:41:00;5.78;;;1.40;;
49217;SDS011;35045;51.194;7.268;2022-12-29T15:46:11;6.50;;;1.50;;
49217;SDS011;35045;51.194;7.268;2022-12-29T15:48:38;5.22;;;1.30;;
49217;SDS011;35045;51.194;7.268;2022-12-29T15:51:24;6.68;;;1.48;;
49217;SDS011;35045;51.194;7.268;2022-12-29T15:53:55;6.32;;;1.40;;
49217;SDS011;35045;51.194;7.268;2022-12-29T15:56:22;5.93;;;1.38;;
49217;SDS011;35045;51.194;7.268;2022-12-29T15:58:50;8.93;;;1.73;;
49217;SDS011;35045;51.194;7.268;2022-12-29T16:01:24;6.82;;;1.63;;
49217;SDS011;35045;51.194;7.268;2022-12-29T16:03:58;8.55;;;1.73;;
49217;SDS011;35045;51.194;7.268;2022-12-29T16:09:03;8.95;;;2.03;;
49217;SDS011;35045;51.194;7.268;2022-12-29T16:11:34;8.05;;;1.95;;
49217;SDS011;35045;51.194;7.268;2022-12-29T16:14:17;8.68;;;1.88;;
49217;SDS011;35045;51.194;7.268;2022-12-29T16:16:47;8.70;;;1.80;;
49217;SDS011;35045;51.194;7.268;2022-12-29T16:21:58;8.10;;;1.98;;
49217;SDS011;35045;51.194;7.268;2022-12-29T16:24:26;7.22;;;2.17;;
49217;SDS011;35045;51.194;7.268;2022-12-29T16:26:59;8.23;;;2.13;;
49217;SDS011;35045;51.194;7.268;2022-12-29T16:29:30;12.15;;;2.15;;
49217;SDS011;35045;51.194;7.268;2022-12-29T16:31:57;7.47;;;1.83;;
49217;SDS011;35045;51.194;7.268;2022-12-29T16:34:30;10.80;;;1.98;;
49217;SDS011;35045;51.194;7.268;2022-12-29T16:36:57;9.18;;;2.10;;
49217;SDS011;35045;51.194;7.268;2022-12-29T16:42:00;9.90;;;2.30;;
49217;SDS011;35045;51.194;7.268;2022-12-29T16:44:27;9.13;;;2.05;;
49217;SDS011;35045;51.194;7.268;2022-12-29T16:47:03;10.25;;;2.65;;
49217;SDS011;35045;51.194;7.268;2022-12-29T16:49:31;9.52;;;2.22;;
49217;SDS011;35045;51.194;7.268;2022-12-29T16:51:59;9.98;;;2.10;;
49217;SDS011;35045;51.194;7.268;2022-12-29T16:54:33;9.02;;;2.30;;
49217;SDS011;35045;51.194;7.268;2022-12-29T16:57:01;10.82;;;2.20;;
49217;SDS011;35045;51.194;7.268;2022-12-29T16:59:32;8.15;;;2.10;;
49217;SDS011;35045;51.194;7.268;2022-12-29T17:02:07;12.20;;;2.58;;
49217;SDS011;35045;51.194;7.268;2022-12-29T17:04:41;11.35;;;2.42;;
49217;SDS011;35045;51.194;7.268;2022-12-29T17:07:20;9.40;;;2.72;;
49217;SDS011;35045;51.194;7.268;2022-12-29T17:09:48;8.25;;;1.85;;
49217;SDS011;35045;51.194;7.268;2022-12-29T17:12:28;7.97;;;2.17;;
49217;SDS011;35045;51.194;7.268;2022-12-29T17:15:05;9.80;;;2.80;;
49217;SDS011;35045;51.194;7.268;2022-12-29T17:17:39;7.30;;;2.10;;
49217;SDS011;35045;51.194;7.268;2022-12-29T17:22:42;8.45;;;2.05;;